首页
METAR-TAF:

METAR-TAF

机场 :

Wittman Regional Airport

Oshkosh, 威斯康辛州, 美国

纬度: 43-58-00N, 经度: 088-33-29W, 海拔: 246米

当前天气观测

该预报发布于1小时和1分钟前的18:53 UTC
风速7节,风向北转东北
温度 3°C
湿度 60%
气压 1013 hPa
能見度: 16.1公里
天空无云

METAR: KOSH 241853Z 03007KT 10SM CLR 03/M04 A2992 RMK AO2 SLP141 T00281039

时间: 13:54 (19:54 UTC)


TAF: 丢失

超过4000个机场的气象观测和天气预报(METAR&TAF报告)。

可查询的气象台以黄色和红色小点在地图上表示。

将鼠标移到小点上方,可查看气象台名称。

然后点击查看天气观测和预报。

如需切换地图:点击带黑十字的绿色按钮放大地图;点击带横线的绿色按钮缩小地图;或者点击绿色箭头查看邻近地区的地图。


METAR-TAF: